Weather History for KFRM - December, 2013

Change the Weather History Date:

Thursday, December 5, 2013

  Actual Average Record
Temperature  
Mean Temperature 5 °F -  
Max Temperature 10 °F 32 °F 60 °F (2001)
Min Temperature 0 °F 14 °F -7 °F (1950)
Degree Days  
Heating Degree Days 60    
Moisture  
Dew Point -2 °F    
Average Humidity 70    
Maximum Humidity 78    
Minimum Humidity 62    
Precipitation  
Precipitation 0.00 in - - ()
Sea Level Pressure  
Sea Level Pressure 30.13 in    
Wind  
Wind Speed 18 mph (WNW)    
Max Wind Speed 23 mph    
Max Gust Speed 31 mph    
Visibility 10 miles    
Events      
Averages and records for this station are not official NWS values.
T = Trace of Precipitation, MM = Missing Value Source: NWS Daily Summary

Daily Weather History Graph

Daily Weather History Graph

Search for Another Location

Airport or City:

Trip Planner

Search our weather history database for the weather conditions in past years. The results will help you decide how hot, cold, wet, or windy it might be!

Date:

Astronomy

Dec. 05, 2013 Rise Set
Actual Time 7:35 AM CST 4:41 PM CST
Civil Twilight 7:03 AM CST 5:13 PM CST
Nautical Twilight 6:27 AM CST 5:49 PM CST
Astronomical Twilight 5:52 AM CST 6:24 PM CST
Moon 9:54 AM CST (12/5) 8:05 PM CST (12/5)
Length of Visible Light 10h 10m
Length of Day
9h 05m
Waxing Crescent, 11% of the Moon is Illuminated
Dec 5
Waxing Crescent
Dec 9
First Quarter
Dec 17
Full
Dec 25
Last Quarter
Jan 1
New

Hourly Weather History & Observations

Time (CST) Temp. Windchill Dew Point Humidity Pressure Visibility Wind Dir Wind Speed Gust Speed Precip Events Conditions
12:15 AM 10.4 °F -7.7 °F 3.2 °F 73% 29.83 in 10.0 mi WNW 18.4 mph 26.5 mph N/A   Partly Cloudy
12:35 AM 10.4 °F -7.7 °F 1.4 °F 67% 29.85 in 10.0 mi West 18.4 mph 27.6 mph N/A   Partly Cloudy
12:55 AM 10.4 °F -8.2 °F 1.4 °F 67% 29.86 in 10.0 mi WNW 19.6 mph 28.8 mph N/A   Partly Cloudy
1:15 AM 8.6 °F -10.5 °F 1.4 °F 73% 29.85 in 10.0 mi WNW 19.6 mph 29.9 mph N/A   Clear
1:35 AM 8.6 °F -8.9 °F 1.4 °F 73% 29.87 in 10.0 mi WNW 16.1 mph 27.6 mph N/A   Clear
1:55 AM 8.6 °F -11.4 °F 1.4 °F 73% 29.90 in 10.0 mi West 21.9 mph 26.5 mph N/A   Clear
2:15 AM 8.6 °F -9.5 °F 1.4 °F 73% 29.91 in 10.0 mi West 17.3 mph - N/A   Clear
2:35 AM 8.6 °F -10.0 °F 1.4 °F 73% 29.92 in 10.0 mi West 18.4 mph - N/A   Clear
2:55 AM 8.6 °F -11.4 °F 1.4 °F 73% 29.93 in 10.0 mi West 21.9 mph 26.5 mph N/A   Clear
3:15 AM 8.6 °F -10.5 °F 1.4 °F 73% 29.94 in 10.0 mi West 19.6 mph 26.5 mph N/A   Clear
3:35 AM 8.6 °F -10.5 °F 1.4 °F 73% 29.96 in 10.0 mi West 19.6 mph 27.6 mph N/A   Clear
3:55 AM 8.6 °F -11.4 °F -0.4 °F 67% 29.96 in 10.0 mi West 21.9 mph 29.9 mph N/A   Clear
4:15 AM 6.8 °F -13.4 °F -0.4 °F 72% 29.97 in 10.0 mi West 20.7 mph 28.8 mph N/A   Clear
4:35 AM 6.8 °F -12.4 °F -0.4 °F 72% 29.98 in 10.0 mi WNW 18.4 mph 28.8 mph N/A   Clear
4:55 AM 6.8 °F -10.7 °F -0.4 °F 72% 29.99 in 10.0 mi West 15.0 mph 25.3 mph N/A   Clear
5:15 AM 6.8 °F -11.8 °F -0.4 °F 72% 30.00 in 10.0 mi West 17.3 mph 28.8 mph N/A   Clear
5:35 AM 6.8 °F -12.4 °F -0.4 °F 72% 30.00 in 10.0 mi West 18.4 mph 27.6 mph N/A   Clear
5:55 AM 6.8 °F -11.8 °F -0.4 °F 72% 30.01 in 10.0 mi West 17.3 mph 21.9 mph N/A   Clear
6:15 AM 6.8 °F -11.8 °F -0.4 °F 72% 30.02 in 10.0 mi West 17.3 mph 24.2 mph N/A   Clear
6:35 AM 6.8 °F -11.8 °F -0.4 °F 72% 30.04 in 10.0 mi West 17.3 mph 25.3 mph N/A   Clear
6:55 AM 5.0 °F -13.6 °F -0.4 °F 78% 30.05 in 10.0 mi West 16.1 mph 24.2 mph N/A   Clear
7:15 AM 5.0 °F -14.7 °F -0.4 °F 78% 30.05 in 10.0 mi West 18.4 mph - N/A   Clear
7:35 AM 5.0 °F -14.7 °F -2.2 °F 72% 30.07 in 10.0 mi West 18.4 mph 24.2 mph N/A   Clear
7:55 AM 5.0 °F -14.2 °F -2.2 °F 72% 30.07 in 10.0 mi West 17.3 mph 24.2 mph N/A   Clear
8:15 AM 5.0 °F -15.2 °F -2.2 °F 72% 30.08 in 10.0 mi WNW 19.6 mph 23.0 mph N/A   Clear
8:35 AM 6.8 °F -14.3 °F -2.2 °F 67% 30.08 in 10.0 mi WNW 23.0 mph - N/A   Clear
8:55 AM 6.8 °F -13.4 °F -0.4 °F 72% 30.09 in 10.0 mi West 20.7 mph 26.5 mph N/A   Clear
9:15 AM 6.8 °F -14.3 °F -0.4 °F 72% 30.10 in 10.0 mi WNW 23.0 mph 28.8 mph N/A   Clear
9:35 AM 6.8 °F -12.4 °F -0.4 °F 72% 30.11 in 10.0 mi WNW 18.4 mph 27.6 mph N/A   Clear
9:55 AM 8.6 °F -10.5 °F -0.4 °F 67% 30.11 in 10.0 mi WNW 19.6 mph 29.9 mph N/A   Clear
10:15 AM 8.6 °F -11.4 °F -0.4 °F 67% 30.12 in 10.0 mi WNW 21.9 mph 29.9 mph N/A   Clear
10:35 AM 8.6 °F -11.4 °F -2.2 °F 62% 30.13 in 10.0 mi WNW 21.9 mph 31.1 mph N/A   Clear
10:55 AM 8.6 °F -11.4 °F -0.4 °F 67% 30.14 in 10.0 mi WNW 21.9 mph 27.6 mph N/A   Clear
11:15 AM 8.6 °F -11.0 °F -0.4 °F 67% 30.15 in 10.0 mi West 20.7 mph 26.5 mph N/A   Clear
11:35 AM 8.6 °F -11.0 °F -0.4 °F 67% 30.16 in 10.0 mi WNW 20.7 mph 25.3 mph N/A   Clear
11:55 AM 8.6 °F -11.4 °F -0.4 °F 67% 30.16 in 10.0 mi WNW 21.9 mph 25.3 mph N/A   Clear
12:15 PM 8.6 °F -10.5 °F -0.4 °F 67% 30.16 in 10.0 mi WNW 19.6 mph 24.2 mph N/A   Clear
12:35 PM 8.6 °F -10.5 °F -0.4 °F 67% 30.17 in 10.0 mi WNW 19.6 mph - N/A   Clear
12:55 PM 10.4 °F -6.6 °F -0.4 °F 62% 30.16 in 10.0 mi WNW 16.1 mph 21.9 mph N/A   Partly Cloudy
1:15 PM 10.4 °F -6.6 °F -0.4 °F 62% 30.16 in 10.0 mi WNW 16.1 mph - N/A   Partly Cloudy
1:35 PM 10.4 °F -8.6 °F -0.4 °F 62% 30.14 in 10.0 mi WNW 20.7 mph 26.5 mph N/A   Clear
1:55 PM 10.4 °F -9.1 °F -0.4 °F 62% 30.14 in 10.0 mi WNW 21.9 mph 27.6 mph N/A   Clear
2:15 PM 10.4 °F -7.7 °F -0.4 °F 62% 30.14 in 10.0 mi WNW 18.4 mph 26.5 mph N/A   Clear
2:35 PM 10.4 °F -7.7 °F -0.4 °F 62% 30.14 in 10.0 mi WNW 18.4 mph 23.0 mph N/A   Clear
2:55 PM 8.6 °F -9.5 °F -0.4 °F 67% 30.16 in 10.0 mi WNW 17.3 mph - N/A   Clear
3:15 PM 8.6 °F -9.5 °F -2.2 °F 62% 30.17 in 10.0 mi West 17.3 mph - N/A   Clear
3:35 PM 8.6 °F -8.9 °F -0.4 °F 67% 30.17 in 10.0 mi West 16.1 mph - N/A   Partly Cloudy
3:55 PM 6.8 °F -10.7 °F -0.4 °F 72% 30.18 in 10.0 mi West 15.0 mph - N/A   Clear
4:15 PM 6.8 °F -12.4 °F -2.2 °F 67% 30.19 in 10.0 mi West 18.4 mph - N/A   Partly Cloudy
4:35 PM 6.8 °F -7.8 °F -2.2 °F 67% 30.20 in 10.0 mi West 10.4 mph 18.4 mph N/A   Clear
4:55 PM 6.8 °F -9.3 °F -2.2 °F 67% 30.21 in 10.0 mi WNW 12.7 mph - N/A   Clear
5:15 PM 5.0 °F -13.0 °F -2.2 °F 72% 30.22 in 10.0 mi WNW 15.0 mph - N/A   Clear
5:35 PM 5.0 °F -10.8 °F -2.2 °F 72% 30.23 in 10.0 mi West 11.5 mph - N/A   Clear
5:55 PM 5.0 °F -10.8 °F -2.2 °F 72% 30.24 in 10.0 mi West 11.5 mph - N/A   Clear
6:15 PM 5.0 °F -10.8 °F -2.2 °F 72% 30.26 in 10.0 mi West 11.5 mph 17.3 mph N/A   Clear
6:35 PM 5.0 °F -10.8 °F -2.2 °F 72% 30.28 in 10.0 mi West 11.5 mph 17.3 mph N/A   Clear
6:55 PM 3.2 °F -13.1 °F -2.2 °F 78% 30.28 in 10.0 mi West 11.5 mph - N/A   Clear
7:15 PM 3.2 °F -13.1 °F -2.2 °F 78% 30.29 in 10.0 mi West 11.5 mph - N/A   Clear
7:35 PM 3.2 °F -12.2 °F -4.0 °F 72% 30.29 in 10.0 mi West 10.4 mph - N/A   Clear
7:55 PM 3.2 °F -13.9 °F -4.0 °F 72% 30.30 in 10.0 mi West 12.7 mph - N/A   Clear
8:15 PM 3.2 °F -12.2 °F -4.0 °F 72% 30.30 in 10.0 mi West 10.4 mph - N/A   Clear
8:35 PM 3.2 °F -15.3 °F -5.8 °F 66% 30.30 in 10.0 mi West 15.0 mph - N/A   Clear
8:55 PM 3.2 °F -15.3 °F -5.8 °F 66% 30.30 in 10.0 mi West 15.0 mph 20.7 mph N/A   Clear
9:15 PM 1.4 °F -17.6 °F -5.8 °F 72% 30.32 in 10.0 mi West 15.0 mph - N/A   Clear
9:35 PM 1.4 °F -17.6 °F -5.8 °F 72% 30.31 in 10.0 mi West 15.0 mph 18.4 mph N/A   Clear
9:55 PM 1.4 °F -16.1 °F -5.8 °F 72% 30.32 in 10.0 mi West 12.7 mph - N/A   Clear
10:15 PM 1.4 °F -16.9 °F -5.8 °F 72% 30.32 in 10.0 mi West 13.8 mph - N/A   Clear
10:35 PM 1.4 °F -17.6 °F -5.8 °F 72% 30.32 in 10.0 mi West 15.0 mph - N/A   Clear
10:55 PM 1.4 °F -17.6 °F -7.6 °F 66% 30.33 in 10.0 mi WNW 15.0 mph - N/A   Clear
11:15 PM -0.4 °F -19.9 °F -7.6 °F 72% 30.35 in 10.0 mi WNW 15.0 mph - N/A   Clear
11:35 PM -0.4 °F -17.6 °F -7.6 °F 72% 30.35 in 10.0 mi West 11.5 mph - N/A   Clear
11:55 PM -0.4 °F -19.2 °F -7.6 °F 72% 30.35 in 10.0 mi West 13.8 mph - N/A   Clear